Time;durP1;ratioP1;P1;durP2;ratioP2;P2;SDS_P1;SDS_P2;PMS_P1;PMS_P2;Temp;Humidity;BMP_temperature;BMP_pressure;BME280_temperature;BME280_humidity;BME280_pressure;Samples;Min_cycle;Max_cycle;Signal;HPM_P1;HPM_P2
2022/05/28 00:01:15;;;;;;;;;9.00;7.75;;;;;15.99;52.07;102096.56;6306426;22;45292;-78
2022/05/28 00:03:42;;;;;;;;;7.25;6.25;;;;;15.97;52.40;102097.44;6307669;22;45425;-79
2022/05/28 00:06:29;;;;;;;;;6.50;6.50;;;;;15.94;52.52;102086.84;6279955;22;45323;-78
2022/05/28 00:08:57;;;;;;;;;9.75;7.25;;;;;15.91;52.64;102089.50;6305690;22;45424;-78
2022/05/28 00:11:26;;;;;;;;;7.00;5.50;;;;;15.91;52.64;102092.16;6305601;22;45607;-80
2022/05/28 00:13:52;;;;;;;;;7.00;7.00;;;;;15.87;52.53;102091.28;6283385;22;45346;-79
2022/05/28 00:16:19;;;;;;;;;8.00;7.25;;;;;15.84;52.73;102089.50;6311156;22;45434;-79
2022/05/28 00:18:45;;;;;;;;;7.00;6.00;;;;;15.81;52.82;102088.66;6282596;22;46778;-78
2022/05/28 00:21:12;;;;;;;;;6.75;6.75;;;;;15.76;52.92;102088.66;6281623;22;45244;-79
2022/05/28 00:23:39;;;;;;;;;7.75;7.75;;;;;15.74;53.14;102081.59;6279333;22;45791;-79
2022/05/28 00:26:05;;;;;;;;;8.00;6.75;;;;;15.71;53.29;102081.59;6307019;22;45357;-79
2022/05/28 00:28:31;;;;;;;;;8.00;7.50;;;;;15.66;53.40;102092.19;6309087;22;45659;-79
2022/05/28 00:30:57;;;;;;;;;9.75;7.50;;;;;15.61;53.76;102081.63;6281337;22;45581;-79
2022/05/28 00:33:23;;;;;;;;;7.75;7.00;;;;;15.59;53.64;102083.38;6310379;22;45244;-79
2022/05/28 00:35:50;;;;;;;;;6.25;6.00;;;;;15.57;53.58;102076.31;6282704;22;45683;-78
2022/05/28 00:38:16;;;;;;;;;10.00;8.50;;;;;15.53;53.92;102074.53;6314053;22;45404;-78
2022/05/28 00:40:46;;;;;;;;;5.50;5.25;;;;;15.53;53.87;102085.16;6284550;22;45239;-79
2022/05/28 00:43:12;;;;;;;;;11.50;9.25;;;;;15.49;54.04;102076.34;6311868;22;45314;-79
2022/05/28 00:45:39;;;;;;;;;9.00;6.50;;;;;15.46;53.90;102073.69;6308777;22;45484;-79
2022/05/28 00:48:06;;;;;;;;;9.00;8.00;;;;;15.42;54.03;102075.47;6282565;22;45462;-78
2022/05/28 00:50:34;;;;;;;;;5.00;3.00;;;;;15.39;54.09;102071.94;6282448;22;45573;-79
2022/05/28 00:53:00;;;;;;;;;6.75;6.75;;;;;15.36;54.27;102069.28;6309099;22;45361;-79
2022/05/28 00:55:25;;;;;;;;;5.25;5.25;;;;;15.34;54.32;102068.41;6310495;22;45189;-79
2022/05/28 00:57:51;;;;;;;;;10.00;6.75;;;;;15.31;54.46;102065.75;6310317;22;45493;-78
2022/05/28 01:00:20;;;;;;;;;8.25;7.00;;;;;15.32;54.31;102068.41;6310031;22;45362;-78
2022/05/28 01:03:09;;;;;;;;;7.75;7.25;;;;;15.32;54.57;102064.88;6284007;22;45225;-78
2022/05/28 01:05:43;;;;;;;;;8.50;8.00;;;;;15.29;54.58;102068.44;6285481;22;45351;-79
2022/05/28 01:08:30;;;;;;;;;7.00;7.00;;;;;15.27;54.69;102077.28;6282329;22;48153;-79
2022/05/28 01:11:37;;;;;;;;;6.50;5.00;;;;;15.21;55.18;102067.56;6281743;22;45784;-78
2022/05/28 01:14:11;;;;;;;;;7.50;6.25;;;;;15.18;54.77;102068.44;6308998;22;45287;-78
2022/05/28 01:16:51;;;;;;;;;3.00;2.00;;;;;15.14;55.18;102065.78;6282159;22;45322;-78
2022/05/28 01:19:16;;;;;;;;;7.00;7.00;;;;;15.14;55.41;102060.50;6310222;22;46389;-79
2022/05/28 01:21:52;;;;;;;;;7.50;6.00;;;;;15.13;55.22;102069.31;6310323;22;45146;-79
2022/05/28 01:24:45;;;;;;;;;6.00;5.25;;;;;15.08;55.67;102064.03;6282508;22;45527;-79
2022/05/28 01:27:15;;;;;;;;;8.00;7.00;;;;;15.06;55.36;102059.63;6284695;22;46057;-79
2022/05/28 01:29:45;;;;;;;;;7.75;7.75;;;;;15.03;55.58;102054.31;6311282;22;47804;-79
2022/05/28 01:32:13;;;;;;;;;9.00;6.50;;;;;14.99;55.79;102056.06;6310866;22;45205;-79
2022/05/28 01:34:40;;;;;;;;;6.75;6.00;;;;;14.98;56.04;102059.63;6310331;22;45196;-79
2022/05/28 01:37:07;;;;;;;;;5.25;4.00;;;;;14.94;56.21;102055.19;6282415;22;45436;-79
2022/05/28 01:39:34;;;;;;;;;6.00;4.00;;;;;14.90;56.37;102050.78;6282453;22;46947;-79
2022/05/28 01:42:02;;;;;;;;;6.00;6.00;;;;;14.89;56.30;102047.25;6308255;22;45244;-79
2022/05/28 01:44:31;;;;;;;;;4.00;4.00;;;;;14.86;56.42;102043.69;6281953;22;45351;-78
2022/05/28 01:46:57;;;;;;;;;8.50;6.25;;;;;14.84;56.69;102045.50;6282919;22;45394;-79
2022/05/28 01:49:23;;;;;;;;;7.00;7.00;;;;;14.84;56.43;102045.50;6310853;22;46336;-78
2022/05/28 01:51:59;;;;;;;;;9.50;7.50;;;;;14.83;56.74;102051.66;6283925;22;45309;-79
2022/05/28 01:54:30;;;;;;;;;5.00;5.00;;;;;14.79;56.56;102042.84;6314079;22;45215;-78
2022/05/28 01:56:57;;;;;;;;;7.25;6.75;;;;;14.80;57.11;102041.94;6309958;22;45352;-78
2022/05/28 01:59:27;;;;;;;;;7.00;6.75;;;;;14.78;56.48;102047.25;6310139;22;45374;-78
2022/05/28 02:01:56;;;;;;;;;7.00;6.00;;;;;14.77;56.79;102044.59;6282142;22;45392;-79
2022/05/28 02:04:21;;;;;;;;;3.75;3.75;;;;;14.76;56.61;102046.38;6310221;22;45274;-79
2022/05/28 02:06:47;;;;;;;;;7.50;7.25;;;;;14.70;57.01;102038.44;6282027;22;45382;-79
2022/05/28 02:09:24;;;;;;;;;9.00;8.00;;;;;14.65;56.96;102031.34;6310148;22;46382;-79
2022/05/28 02:12:05;;;;;;;;;5.00;5.00;;;;;14.65;57.04;102036.63;6310427;22;45156;-79
2022/05/28 02:14:34;;;;;;;;;7.25;7.25;;;;;14.63;57.45;102041.06;6312964;22;45385;-79
2022/05/28 02:17:19;;;;;;;;;8.25;8.25;;;;;14.56;57.26;102025.16;6284150;22;45179;-79
2022/05/28 02:19:50;;;;;;;;;9.00;7.75;;;;;14.61;57.29;102034.88;6309896;22;45370;-79
2022/05/28 02:22:34;;;;;;;;;8.75;6.75;;;;;14.56;57.57;102025.16;6310415;22;45373;-79
2022/05/28 02:25:07;;;;;;;;;10.00;7.00;;;;;14.57;57.70;102031.34;6282344;22;45327;-80
2022/05/28 02:27:37;;;;;;;;;7.25;6.75;;;;;14.56;57.87;102022.50;6310229;22;45418;-79
2022/05/28 02:30:02;;;;;;;;;6.00;6.00;;;;;14.54;57.67;102020.72;6282260;22;46555;-79
2022/05/28 02:32:28;;;;;;;;;9.50;8.00;;;;;14.50;57.63;102011.88;6310288;22;45219;-79
2022/05/28 02:34:53;;;;;;;;;8.00;8.00;;;;;14.53;58.24;102011.03;6310559;22;45221;-79
2022/05/28 02:37:24;;;;;;;;;8.00;7.00;;;;;14.52;57.66;102014.53;6313291;22;45267;-79
2022/05/28 02:39:49;;;;;;;;;10.00;7.25;;;;;14.47;57.95;102009.22;6310750;22;46391;-79
2022/05/28 02:42:15;;;;;;;;;7.50;7.50;;;;;14.48;57.81;102004.81;6312682;22;45350;-79
2022/05/28 02:44:41;;;;;;;;;11.50;10.00;;;;;14.47;57.89;102006.56;6282724;22;45260;-79
2022/05/28 02:47:07;;;;;;;;;10.50;8.25;;;;;14.47;58.35;102013.66;6309977;22;45335;-79
2022/05/28 02:49:33;;;;;;;;;7.50;7.50;;;;;14.41;58.54;102000.41;6282103;22;48050;-79
2022/05/28 02:52:03;;;;;;;;;8.50;8.50;;;;;14.42;57.92;102005.69;6310276;22;45203;-79
2022/05/28 02:54:33;;;;;;;;;5.00;5.00;;;;;14.40;58.36;102009.22;6310286;22;45201;-79
2022/05/28 02:57:01;;;;;;;;;7.25;7.25;;;;;14.35;58.54;102003.91;6309173;22;45173;-79
2022/05/28 02:59:27;;;;;;;;;7.75;6.50;;;;;14.31;58.74;102002.16;6281907;22;46538;-79
2022/05/28 03:01:52;;;;;;;;;9.00;8.00;;;;;14.33;58.73;102000.38;6286946;22;45393;-79
2022/05/28 03:04:19;;;;;;;;;8.00;7.00;;;;;14.33;58.65;101998.63;6312025;22;45271;-78
2022/05/28 03:06:44;;;;;;;;;9.00;9.00;;;;;14.31;58.93;101997.72;6282858;22;45356;-79
2022/05/28 03:09:10;;;;;;;;;7.00;6.50;;;;;14.30;58.82;101995.06;6282129;22;46029;-79
2022/05/28 03:11:37;;;;;;;;;7.00;6.25;;;;;14.33;58.42;102003.03;6310036;22;45251;-79
2022/05/28 03:14:03;;;;;;;;;12.25;9.00;;;;;14.29;58.46;102001.25;6310380;22;45233;-79
2022/05/28 03:16:29;;;;;;;;;10.25;8.25;;;;;14.33;58.54;102011.88;6282058;22;45509;-79
2022/05/28 03:18:54;;;;;;;;;11.00;11.00;;;;;14.32;59.20;102014.50;6309859;22;45993;-79
2022/05/28 03:21:20;;;;;;;;;12.75;11.25;;;;;14.32;59.05;102011.84;6308402;22;45177;-79
2022/05/28 03:23:47;;;;;;;;;10.00;9.75;;;;;14.29;59.04;102006.56;6310129;22;45091;-79
2022/05/28 03:26:22;;;;;;;;;7.50;7.50;;;;;14.27;59.06;102003.91;6312425;22;45314;-79
2022/05/28 03:28:49;;;;;;;;;7.00;7.00;;;;;14.28;58.83;102008.31;6313040;22;45320;-78
2022/05/28 03:31:15;;;;;;;;;9.00;8.50;;;;;14.23;59.09;102006.56;6309820;22;45278;-79
2022/05/28 03:33:42;;;;;;;;;9.50;9.50;;;;;14.24;58.91;102008.31;6281869;22;45244;-79
2022/05/28 03:36:08;;;;;;;;;8.00;6.25;;;;;14.18;58.73;102006.53;6281888;22;45435;-79
2022/05/28 03:38:34;;;;;;;;;10.50;10.50;;;;;14.19;58.91;102008.28;6307787;22;47090;-79
2022/05/28 03:41:00;;;;;;;;;11.50;10.50;;;;;14.16;59.02;102012.72;6307588;22;45183;-79
2022/05/28 03:43:25;;;;;;;;;8.25;8.25;;;;;14.17;59.64;102012.72;6309918;22;45200;-79
2022/05/28 03:45:51;;;;;;;;;10.50;10.00;;;;;14.12;59.52;102003.88;6281957;22;45190;-79
2022/05/28 03:48:17;;;;;;;;;14.75;11.50;;;;;14.13;59.41;102013.59;6312467;22;46491;-79
2022/05/28 03:50:42;;;;;;;;;6.75;6.75;;;;;14.07;59.32;102011.81;6312601;22;45389;-78
2022/05/28 03:53:08;;;;;;;;;8.75;8.75;;;;;14.03;59.22;102014.44;6309757;22;45372;-79
2022/05/28 03:55:36;;;;;;;;;12.50;12.50;;;;;14.03;59.64;102017.09;6281622;22;45568;-79
2022/05/28 03:58:02;;;;;;;;;15.00;13.00;;;;;13.98;59.56;102011.81;6309470;22;45421;-79
2022/05/28 04:00:29;;;;;;;;;8.75;7.00;;;;;13.99;59.40;102021.50;6309300;22;45362;-79
2022/05/28 04:02:54;;;;;;;;;12.50;12.00;;;;;13.95;59.80;102032.94;6306877;22;45200;-79
2022/05/28 04:05:22;;;;;;;;;12.75;10.50;;;;;13.94;59.81;102031.19;6309177;22;45205;-79
2022/05/28 04:07:48;;;;;;;;;11.50;9.00;;;;;13.93;60.41;102036.50;6282197;22;47041;-79
2022/05/28 04:10:14;;;;;;;;;12.00;11.00;;;;;13.88;60.45;102033.84;6312550;22;45358;-78
2022/05/28 04:12:39;;;;;;;;;11.00;7.50;;;;;13.86;60.49;102030.28;6285550;22;45424;-78
2022/05/28 04:15:06;;;;;;;;;10.00;9.00;;;;;13.83;60.34;102036.47;6286173;22;45481;-79
2022/05/28 04:17:31;;;;;;;;;13.50;12.50;;;;;13.88;60.35;102041.78;6282844;22;46761;-78
2022/05/28 04:19:56;;;;;;;;;9.75;8.75;;;;;13.82;60.08;102034.69;6310785;22;45357;-79
2022/05/28 04:22:31;;;;;;;;;15.50;10.00;;;;;13.82;60.26;102037.34;6283214;22;45264;-79
2022/05/28 04:24:57;;;;;;;;;9.75;9.75;;;;;13.80;60.54;102041.75;6310255;22;45690;-80
2022/05/28 04:27:22;;;;;;;;;12.25;11.00;;;;;13.84;60.54;102039.97;6282305;22;45833;-79
2022/05/28 04:29:48;;;;;;;;;9.75;9.75;;;;;13.83;60.81;102041.75;6282788;22;45177;-79
2022/05/28 04:32:13;;;;;;;;;11.75;11.00;;;;;13.81;60.36;102038.19;6283714;22;45219;-79
2022/05/28 04:34:39;;;;;;;;;14.25;13.00;;;;;13.81;60.31;102034.69;6312111;22;45173;-79
2022/05/28 04:37:05;;;;;;;;;13.75;9.75;;;;;13.80;60.60;102038.22;6314659;22;45276;-79
2022/05/28 04:39:30;;;;;;;;;15.00;13.25;;;;;13.76;60.51;102033.78;6283135;22;45231;-79
2022/05/28 04:41:56;;;;;;;;;14.00;12.50;;;;;13.79;60.27;102036.44;6311526;22;45408;-79
2022/05/28 04:44:21;;;;;;;;;13.75;13.00;;;;;13.79;60.34;102042.63;6282495;22;45184;-79
2022/05/28 04:46:47;;;;;;;;;11.50;9.50;;;;;13.74;60.84;102040.81;6282939;22;46039;-79
2022/05/28 04:49:13;;;;;;;;;11.50;9.25;;;;;13.77;60.85;102044.38;6282509;22;45206;-79
2022/05/28 04:51:38;;;;;;;;;12.75;9.00;;;;;13.80;60.40;102051.44;6310543;22;45311;-79
2022/05/28 04:54:04;;;;;;;;;12.75;12.50;;;;;13.75;60.88;102038.19;6310952;22;45211;-79
2022/05/28 04:56:30;;;;;;;;;12.50;10.50;;;;;13.80;60.73;102054.09;6313131;22;45211;-79
2022/05/28 04:58:56;;;;;;;;;12.00;11.50;;;;;13.79;60.63;102041.72;6283892;22;45201;-79
2022/05/28 05:01:23;;;;;;;;;11.25;9.00;;;;;13.80;61.04;102048.81;6282947;22;45397;-79
2022/05/28 05:03:49;;;;;;;;;12.75;8.00;;;;;13.81;60.83;102050.56;6282419;22;45240;-80
2022/05/28 05:06:14;;;;;;;;;8.75;8.75;;;;;13.80;60.74;102046.16;6283142;22;47115;-79
2022/05/28 05:08:42;;;;;;;;;13.50;11.50;;;;;13.79;60.60;102045.28;6311371;22;45152;-80
2022/05/28 05:11:08;;;;;;;;;11.50;10.50;;;;;13.84;61.09;102058.50;6309428;22;45259;-79
2022/05/28 05:13:33;;;;;;;;;14.25;11.50;;;;;13.82;60.68;102047.94;6310856;22;45434;-79
2022/05/28 05:15:59;;;;;;;;;14.75;13.75;;;;;13.85;61.01;102050.59;6310454;22;46272;-79
2022/05/28 05:18:24;;;;;;;;;12.75;12.75;;;;;13.81;61.15;102043.50;6310652;22;45333;-79
2022/05/28 05:20:50;;;;;;;;;15.50;12.25;;;;;13.86;61.05;102051.47;6286959;22;45348;-79
2022/05/28 05:23:17;;;;;;;;;12.00;9.50;;;;;13.85;60.89;102045.28;6285639;22;45363;-79
2022/05/28 05:25:43;;;;;;;;;10.75;9.00;;;;;13.85;60.71;102047.94;6281905;22;46899;-79
2022/05/28 05:28:08;;;;;;;;;13.25;11.75;;;;;13.87;61.31;102059.44;6282294;22;45359;-79
2022/05/28 05:30:34;;;;;;;;;12.25;10.25;;;;;13.86;61.01;102055.00;6308954;22;45171;-80
2022/05/28 05:32:59;;;;;;;;;11.00;9.25;;;;;13.85;61.10;102053.25;6308879;22;45370;-80
2022/05/28 05:35:25;;;;;;;;;15.00;14.25;;;;;13.85;61.32;102050.59;6308261;22;47533;-79
2022/05/28 05:37:50;;;;;;;;;14.50;14.50;;;;;13.90;61.42;102054.13;6282176;22;45257;-78
2022/05/28 05:40:16;;;;;;;;;14.00;14.00;;;;;13.92;61.12;102050.59;6308679;22;45307;-79
2022/05/28 05:42:42;;;;;;;;;13.25;13.00;;;;;13.91;61.01;102049.72;6311640;22;45189;-77
2022/05/28 05:45:08;;;;;;;;;14.00;11.75;;;;;13.91;60.88;102055.03;6311361;22;45190;-78
2022/05/28 05:47:34;;;;;;;;;14.00;11.00;;;;;13.90;61.26;102054.13;6284511;22;46011;-78
2022/05/28 05:50:00;;;;;;;;;14.00;11.50;;;;;13.91;61.27;102047.06;6282051;22;45315;-81
2022/05/28 05:52:25;;;;;;;;;11.25;10.00;;;;;13.94;61.31;102054.16;6310697;22;45373;-78
2022/05/28 05:54:52;;;;;;;;;16.75;13.50;;;;;13.93;61.48;102058.56;6309833;22;46442;-78
2022/05/28 05:57:17;;;;;;;;;14.00;12.50;;;;;13.97;61.68;102062.09;6309826;22;45350;-78
2022/05/28 05:59:42;;;;;;;;;13.00;12.50;;;;;13.96;61.56;102055.91;6277063;22;45231;-77
2022/05/28 06:02:09;;;;;;;;;13.50;12.25;;;;;14.00;61.20;102057.69;6251348;22;45421;-77
2022/05/28 06:04:35;;;;;;;;;12.25;12.25;;;;;14.00;61.31;102059.44;6278659;22;45895;-78
2022/05/28 06:07:00;;;;;;;;;12.75;12.25;;;;;14.00;61.49;102057.69;6251166;22;45177;-79
2022/05/28 06:09:25;;;;;;;;;15.00;12.50;;;;;14.00;61.58;102059.44;6251022;22;45204;-79
2022/05/28 06:11:52;;;;;;;;;11.50;10.00;;;;;14.02;61.12;102060.34;6251113;22;45476;-80
2022/05/28 06:14:17;;;;;;;;;11.00;11.00;;;;;14.03;60.93;102065.66;6251143;22;47269;-77
2022/05/28 06:16:43;;;;;;;;;11.00;11.00;;;;;14.04;61.25;102062.13;6250840;22;45711;-79
2022/05/28 06:19:09;;;;;;;;;11.50;9.00;;;;;14.05;61.11;102061.22;6279326;22;45450;-81
2022/05/28 06:21:35;;;;;;;;;13.25;12.75;;;;;14.11;61.56;102058.63;6274601;22;45430;-80
2022/05/28 06:24:01;;;;;;;;;14.75;14.00;;;;;14.13;61.69;102056.84;6276014;22;46241;-78
2022/05/28 06:26:26;;;;;;;;;15.50;13.75;;;;;14.18;61.24;102062.16;6276629;22;45434;-78
2022/05/28 06:28:52;;;;;;;;;11.75;10.00;;;;;14.22;61.38;102056.00;6277035;22;45391;-81
2022/05/28 06:31:18;;;;;;;;;10.75;7.50;;;;;14.25;60.91;102068.38;6249930;22;45533;-80
2022/05/28 06:33:43;;;;;;;;;10.50;10.25;;;;;14.29;61.03;102062.19;6248974;22;47200;-78
2022/05/28 06:36:11;;;;;;;;;17.00;11.50;;;;;14.33;61.26;102071.91;6249229;22;45587;-81
2022/05/28 06:38:36;;;;;;;;;12.75;12.75;;;;;14.36;61.02;102055.16;6249166;22;45241;-81
2022/05/28 06:41:02;;;;;;;;;15.25;9.50;;;;;14.43;60.96;102059.56;6276900;22;45395;-81
2022/05/28 06:43:28;;;;;;;;;14.25;12.75;;;;;14.49;61.48;102060.47;6274866;22;46731;-80
2022/05/28 06:45:54;;;;;;;;;12.75;10.50;;;;;14.55;61.00;102062.25;6276701;22;45333;-79
2022/05/28 06:48:20;;;;;;;;;12.50;10.25;;;;;14.61;60.77;102058.72;6251328;22;45530;-79
2022/05/28 06:51:04;;;;;;;;;17.00;15.25;;;;;14.67;61.11;102064.91;6250794;22;45456;-79
2022/05/28 06:53:40;;;;;;;;;14.75;13.50;;;;;14.70;60.96;102056.97;6249081;22;47490;-82
2022/05/28 06:56:08;;;;;;;;;15.00;12.00;;;;;14.77;60.76;102060.50;6274492;22;45510;-79
2022/05/28 06:58:37;;;;;;;;;14.75;14.75;;;;;14.81;60.73;102056.06;6276436;22;45268;-79
2022/05/28 07:01:03;;;;;;;;;16.50;14.50;;;;;14.87;61.00;102056.09;6276748;22;45268;-80
2022/05/28 07:03:30;;;;;;;;;10.00;9.50;;;;;14.91;60.38;102055.19;6274314;22;46135;-79
2022/05/28 07:05:56;;;;;;;;;14.25;11.25;;;;;14.94;60.47;102053.44;6248172;22;45454;-79
2022/05/28 07:08:23;;;;;;;;;10.75;9.75;;;;;14.97;60.56;102044.59;6277714;22;45433;-81
2022/05/28 07:10:57;;;;;;;;;13.00;12.50;;;;;15.08;60.58;102049.91;6252165;22;45407;-80
2022/05/28 07:13:24;;;;;;;;;16.00;15.25;;;;;15.12;60.54;102046.34;6251622;22;46667;-80
2022/05/28 07:15:51;;;;;;;;;15.00;13.25;;;;;15.20;60.55;102052.50;6250288;22;45184;-80
2022/05/28 07:18:17;;;;;;;;;11.25;9.25;;;;;15.25;60.41;102044.56;6250544;22;45460;-80
2022/05/28 07:20:44;;;;;;;;;16.25;13.75;;;;;15.25;60.15;102036.59;6250468;22;45672;-79
2022/05/28 07:23:20;;;;;;;;;13.75;11.75;;;;;15.32;60.33;102046.31;6250157;22;48270;-79
2022/05/28 07:25:46;;;;;;;;;14.75;11.75;;;;;15.38;60.04;102033.03;6249328;22;45326;-79
2022/05/28 07:28:24;;;;;;;;;18.75;16.00;;;;;15.46;59.88;102036.53;6278191;22;45296;-79
2022/05/28 07:30:51;;;;;;;;;15.25;13.25;;;;;15.54;59.66;102034.72;6278365;22;45426;-78
2022/05/28 07:33:17;;;;;;;;;14.25;11.00;;;;;15.61;59.96;102027.63;6275733;22;46964;-78
2022/05/28 07:35:42;;;;;;;;;17.25;11.25;;;;;15.69;59.34;102028.53;6267070;22;46007;-79
2022/05/28 07:38:08;;;;;;;;;14.25;12.25;;;;;15.80;59.46;102031.13;6275786;22;45253;-79
2022/05/28 07:40:34;;;;;;;;;15.25;12.50;;;;;15.91;59.29;102026.66;6277685;22;45275;-79
2022/05/28 07:43:00;;;;;;;;;10.50;10.50;;;;;16.01;58.90;102025.72;6250058;22;46995;-79
2022/05/28 07:45:25;;;;;;;;;15.00;12.75;;;;;16.10;59.00;102024.78;6250429;22;45363;-78
2022/05/28 07:47:51;;;;;;;;;13.25;12.25;;;;;16.19;58.73;102026.47;6276195;22;45190;-78
2022/05/28 07:50:17;;;;;;;;;15.00;12.50;;;;;16.26;58.20;102037.06;6250401;22;45312;-79
2022/05/28 07:52:42;;;;;;;;;10.50;8.25;;;;;16.30;58.06;102029.94;6278351;22;45368;-80
2022/05/28 07:55:10;;;;;;;;;11.00;11.00;;;;;16.35;57.96;102029.91;6277880;22;45374;-80
2022/05/28 07:57:35;;;;;;;;;15.50;15.50;;;;;16.40;57.56;102031.66;6250374;22;45151;-79
2022/05/28 08:00:03;;;;;;;;;12.50;11.75;;;;;16.43;57.46;102021.00;6295318;22;45163;-79
2022/05/28 08:02:30;;;;;;;;;10.25;9.25;;;;;16.46;57.43;102010.31;6308893;22;45420;-79
2022/05/28 08:04:56;;;;;;;;;9.25;9.25;;;;;16.55;57.33;102012.06;6280839;22;45382;-79
2022/05/28 08:07:21;;;;;;;;;22.50;19.50;;;;;16.63;57.36;102022.63;6308930;22;45485;-79
2022/05/28 08:09:46;;;;;;;;;16.50;14.50;;;;;16.74;56.75;102013.66;6308529;22;45567;-79
2022/05/28 08:12:12;;;;;;;;;12.25;11.50;;;;;16.84;56.63;102017.16;6281025;22;46946;-79
2022/05/28 08:14:37;;;;;;;;;10.00;9.50;;;;;16.94;56.40;102015.28;6280792;22;45266;-80
2022/05/28 08:17:05;;;;;;;;;12.00;10.50;;;;;17.06;55.92;102011.63;6280679;22;45316;-80
2022/05/28 08:19:32;;;;;;;;;16.25;12.50;;;;;17.22;56.00;102013.22;6306888;22;45501;-82
2022/05/28 08:24:43;;;;;;;;;7.00;6.75;;;;;17.52;55.12;102019.97;6244019;22;45423;-81
2022/05/28 08:27:08;;;;;;;;;9.75;9.75;;;;;17.62;54.73;102015.41;6308992;22;45405;-83
2022/05/28 08:29:35;;;;;;;;;14.25;10.75;;;;;17.76;54.63;102012.56;6309462;22;45246;-83
2022/05/28 08:32:00;;;;;;;;;11.75;11.25;;;;;17.91;54.28;102014.16;6309236;22;45389;-78
2022/05/28 08:34:25;;;;;;;;;11.50;10.00;;;;;18.01;53.49;102002.47;6280420;22;45252;-78
2022/05/28 08:36:51;;;;;;;;;17.50;16.00;;;;;18.11;53.42;102012.13;6280868;22;45398;-77
2022/05/28 08:39:16;;;;;;;;;11.50;9.75;;;;;18.23;53.36;102008.38;6308723;22;45290;-77
2022/05/28 08:41:48;;;;;;;;;10.00;10.00;;;;;18.35;52.77;102005.53;6305080;22;47761;-77
2022/05/28 08:44:21;;;;;;;;;9.25;6.50;;;;;18.52;52.71;102000.81;6280391;22;45354;-77
2022/05/28 08:46:58;;;;;;;;;7.25;6.00;;;;;18.65;52.19;102005.94;6280878;22;45304;-80
2022/05/28 08:49:27;;;;;;;;;11.50;9.00;;;;;18.74;51.49;101997.78;6308566;22;45393;-79
2022/05/28 08:52:07;;;;;;;;;11.50;9.00;;;;;18.87;51.26;102001.13;6280424;22;46319;-79
2022/05/28 08:54:58;;;;;;;;;12.50;11.50;;;;;19.05;51.17;102002.59;6280970;22;45299;-79
2022/05/28 08:57:33;;;;;;;;;10.75;9.00;;;;;19.20;51.15;101994.28;6281513;22;45220;-79
2022/05/28 09:00:03;;;;;;;;;5.75;5.75;;;;;19.27;50.12;101998.59;6276357;22;45459;-79
2022/05/28 09:02:38;;;;;;;;;8.00;7.33;;;;;19.32;49.69;101999.38;6250829;22;47129;-78
2022/05/28 09:05:15;;;;;;;;;8.00;8.00;;;;;19.37;49.67;101992.16;6278450;22;45456;-78
2022/05/28 09:07:41;;;;;;;;;8.75;7.75;;;;;19.48;49.59;101988.38;6278801;22;45426;-79
2022/05/28 09:10:10;;;;;;;;;10.67;8.67;;;;;19.57;48.67;101986.41;6278524;22;45370;-79
2022/05/28 09:12:45;;;;;;;;;9.25;8.00;;;;;19.60;48.06;101974.78;6251122;22;47104;-79
2022/05/28 09:15:11;;;;;;;;;10.75;9.50;;;;;19.60;48.13;101977.44;6276777;22;45256;-79
2022/05/28 09:17:43;;;;;;;;;10.25;8.25;;;;;19.65;48.54;101975.56;6276651;22;45270;-79
2022/05/28 09:20:20;;;;;;;;;8.00;6.75;;;;;19.71;48.02;101974.56;6276672;22;45521;-78
2022/05/28 09:22:48;;;;;;;;;12.50;9.50;;;;;19.73;48.38;101975.44;6278365;22;46488;-79
2022/05/28 09:25:18;;;;;;;;;8.67;7.00;;;;;19.74;48.16;101972.69;6277838;22;45407;-80
2022/05/28 09:28:08;;;;;;;;;7.00;5.67;;;;;19.80;47.59;101971.69;6278277;22;45186;-78
2022/05/28 09:30:34;;;;;;;;;6.67;6.33;;;;;19.87;47.19;101969.78;6276430;22;45363;-78
2022/05/28 09:33:08;;;;;;;;;12.67;8.67;;;;;19.94;46.62;101974.03;6250156;22;47374;-79
2022/05/28 09:35:53;;;;;;;;;9.00;8.00;;;;;20.06;46.66;101968.41;6249991;22;45732;-83
2022/05/28 09:38:27;;;;;;;;;8.00;6.67;;;;;20.12;46.83;101965.59;6255269;22;45435;-85
2022/05/28 09:41:28;;;;;;;;;7.67;6.67;;;;;20.21;46.13;101959.16;6254621;22;45445;-82
2022/05/28 09:44:50;;;;;;;;;9.67;6.00;;;;;20.22;45.68;101953.75;6252297;22;47379;-84
2022/05/28 09:47:17;;;;;;;;;7.25;6.00;;;;;20.25;45.66;101951.00;6127662;23;45433;-84
2022/05/28 09:49:48;;;;;;;;;11.00;8.67;;;;;20.32;45.57;101942.84;6125235;23;45513;-87
2022/05/28 09:52:22;;;;;;;;;6.00;6.00;;;;;20.35;45.00;101940.97;6221888;22;45508;-87
2022/05/28 09:54:47;;;;;;;;;6.67;6.67;;;;;20.31;45.40;101931.25;6279701;22;45424;-85
2022/05/28 09:57:21;;;;;;;;;5.33;5.33;;;;;20.26;45.33;101942.09;6279004;22;45361;-85
2022/05/28 09:59:55;;;;;;;;;5.67;4.67;;;;;20.23;45.45;101935.91;6284283;22;45220;-84
2022/05/28 10:05:46;;;;;;;;;11.75;8.75;;;;;20.22;45.76;101921.66;6305341;22;45726;-82
2022/05/28 10:08:14;;;;;;;;;6.25;6.25;;;;;20.32;44.93;101932.16;6283642;22;45502;-83
2022/05/28 10:10:40;;;;;;;;;5.00;4.00;;;;;20.40;45.06;101917.66;6310431;22;45373;-81
2022/05/28 10:13:10;;;;;;;;;9.33;7.33;;;;;20.45;44.76;101923.78;6279998;22;45519;-81
2022/05/28 10:15:54;;;;;;;;;6.50;6.00;;;;;20.51;44.44;101913.81;6309099;22;46455;-84
2022/05/28 10:18:36;;;;;;;;;5.33;5.33;;;;;20.62;44.68;101918.00;6306647;22;45367;-78
2022/05/28 10:21:15;;;;;;;;;8.67;8.00;;;;;20.69;44.09;101921.41;6280056;22;45395;-78
2022/05/28 10:23:51;;;;;;;;;8.33;6.67;;;;;20.80;43.57;101918.44;6304722;22;45180;-78
2022/05/28 10:26:29;;;;;;;;;7.00;5.67;;;;;20.92;43.34;101920.75;6279849;22;46110;-80
2022/05/28 10:29:16;;;;;;;;;7.50;6.50;;;;;21.00;43.29;101916.06;6279218;22;45448;-78
2022/05/28 10:31:45;;;;;;;;;6.00;4.00;;;;;21.05;42.69;101913.25;6308292;22;45349;-78
2022/05/28 10:34:35;;;;;;;;;6.67;5.33;;;;;21.10;42.84;101908.66;6305622;22;45435;-78
2022/05/28 10:37:13;;;;;;;;;5.00;5.00;;;;;21.16;42.59;101908.47;6304393;22;48288;-78
2022/05/28 10:39:44;;;;;;;;;8.67;7.00;;;;;21.20;42.30;101906.56;6307054;22;45510;-81
2022/05/28 10:45:46;;;;;;;;;6.00;4.67;;;;;21.48;40.97;101903.97;6308988;22;45601;-82
2022/05/28 10:48:33;;;;;;;;;4.00;3.33;;;;;21.68;41.24;101892.63;6280210;22;46117;-81
2022/05/28 10:51:29;;;;;;;;;5.00;4.00;;;;;21.83;40.48;101891.25;6282355;22;45474;-82
2022/05/28 10:54:14;;;;;;;;;5.00;3.33;;;;;21.95;40.30;101885.53;6280183;22;45303;-82
2022/05/28 10:57:01;;;;;;;;;6.00;6.00;;;;;22.08;40.26;101880.59;6304637;22;45314;-82
2022/05/28 10:59:32;;;;;;;;;4.67;4.67;;;;;22.23;39.48;101883.66;6277811;22;47315;-82
2022/05/28 11:02:25;;;;;;;;;6.00;4.67;;;;;22.42;38.25;101875.84;6279400;22;45703;-82
2022/05/28 11:05:28;;;;;;;;;5.33;5.33;;;;;22.56;38.14;101870.03;6308178;22;45328;-83
2022/05/28 11:08:05;;;;;;;;;7.00;3.33;;;;;22.71;38.18;101887.38;6306107;22;45418;-82
2022/05/28 11:10:58;;;;;;;;;5.67;4.33;;;;;22.79;37.35;101882.59;6282954;22;47449;-82
2022/05/28 11:13:46;;;;;;;;;4.00;4.00;;;;;22.81;36.87;101878.06;6308341;22;45385;-82
2022/05/28 11:16:40;;;;;;;;;6.00;4.00;;;;;22.79;36.62;101871.84;6309982;22;45831;-81
2022/05/28 11:19:42;;;;;;;;;3.67;3.67;;;;;22.73;36.64;101871.22;6307869;22;45695;-81
2022/05/28 11:22:45;;;;;;;;;3.00;2.00;;;;;22.75;36.49;101880.06;6307725;22;45462;-81
2022/05/28 11:25:28;;;;;;;;;4.00;3.00;;;;;22.89;36.27;101867.03;6307787;22;45329;-81
2022/05/28 11:28:27;;;;;;;;;3.33;2.67;;;;;22.99;34.96;101863.13;6283529;22;45291;-82
2022/05/28 11:31:09;;;;;;;;;4.00;2.67;;;;;23.03;35.20;101861.19;6308955;22;45286;-81
2022/05/28 11:33:47;;;;;;;;;;;;;;;;;;;;;
2022/05/28 11:36:36;;;;;;;;;4.33;4.33;;;;;23.14;34.44;101864.31;6306708;22;71417;-82
2022/05/28 11:39:15;;;;;;;;;4.33;4.33;;;;;23.19;34.24;101850.72;6283473;22;45382;-82
2022/05/28 11:41:46;;;;;;;;;3.00;3.00;;;;;23.20;34.01;101847.97;6307285;22;45279;-80
2022/05/28 11:44:21;;;;;;;;;1.67;1.67;;;;;23.26;34.06;101847.75;6279853;22;48082;-79